createdAt,value
2019-03-06T00:00:33.782Z,13.15
2019-03-06T00:03:02.637Z,14.20
2019-03-06T00:05:31.275Z,14.05
2019-03-06T00:08:01.767Z,13.43
2019-03-06T00:10:31.150Z,16.25
2019-03-06T00:13:00.051Z,15.83
2019-03-06T00:15:28.708Z,15.32
2019-03-06T00:17:59.908Z,14.75
2019-03-06T00:20:28.525Z,14.20
2019-03-06T00:22:57.202Z,15.72
2019-03-06T00:25:25.873Z,15.48
2019-03-06T00:27:54.705Z,15.63
2019-03-06T00:30:23.293Z,14.60
2019-03-06T00:32:51.851Z,16.60
2019-03-06T00:35:45.956Z,18.35
2019-03-06T00:38:15.469Z,18.02
2019-03-06T00:40:56.891Z,21.33
2019-03-06T00:43:24.819Z,24.45
2019-03-06T00:45:56.220Z,23.15
2019-03-06T00:48:26.724Z,23.98
2019-03-06T00:50:55.790Z,23.20
2019-03-06T00:53:24.699Z,23.55
2019-03-06T00:55:53.370Z,32.98
2019-03-06T00:58:52.368Z,24.92
2019-03-06T01:01:21.212Z,25.65
2019-03-06T01:04:07.300Z,26.45
2019-03-06T01:09:40.886Z,29.07
2019-03-06T01:12:10.481Z,28.40
2019-03-06T01:14:48.193Z,34.18
2019-03-06T01:18:07.864Z,33.05
2019-03-06T01:20:36.745Z,30.60
2019-03-06T01:23:05.510Z,31.68
2019-03-06T01:25:35.924Z,31.73
2019-03-06T01:28:04.471Z,29.98
2019-03-06T01:30:33.165Z,29.95
2019-03-06T01:33:18.118Z,28.60
2019-03-06T01:35:57.001Z,27.22
2019-03-06T01:38:29.775Z,25.92
2019-03-06T01:41:05.883Z,25.30
2019-03-06T01:43:44.872Z,26.45
2019-03-06T01:46:13.394Z,24.95
2019-03-06T01:48:41.981Z,25.60
2019-03-06T01:51:11.697Z,25.12
2019-03-06T01:53:40.333Z,23.77
2019-03-06T01:56:14.007Z,24.52
2019-03-06T01:58:42.679Z,23.87
2019-03-06T02:01:11.259Z,24.20
2019-03-06T02:03:39.848Z,25.50
2019-03-06T02:06:08.725Z,23.42
2019-03-06T02:08:37.259Z,23.95
2019-03-06T02:11:07.972Z,23.85
2019-03-06T02:13:36.524Z,24.57
2019-03-06T02:16:05.173Z,23.25
2019-03-06T02:18:33.681Z,24.37
2019-03-06T02:21:02.186Z,21.02
2019-03-06T02:23:30.764Z,21.97
2019-03-06T02:25:59.356Z,23.12
2019-03-06T02:28:28.035Z,24.55
2019-03-06T02:31:04.148Z,24.82
2019-03-06T02:33:37.234Z,22.02
2019-03-06T02:36:05.868Z,22.07
2019-03-06T02:38:37.404Z,22.75
2019-03-06T02:41:06.165Z,22.73
2019-03-06T02:43:36.852Z,23.12
2019-03-06T02:46:05.734Z,23.47
2019-03-06T02:48:34.526Z,23.60
2019-03-06T02:51:03.033Z,22.17
2019-03-06T02:53:31.518Z,22.00
2019-03-06T02:56:00.211Z,22.27
2019-03-06T02:58:33.312Z,22.35
2019-03-06T03:01:18.397Z,20.40
2019-03-06T03:04:06.562Z,21.95
2019-03-06T03:06:36.705Z,21.37
2019-03-06T03:09:09.721Z,20.80
2019-03-06T03:11:38.293Z,20.20
2019-03-06T03:14:07.076Z,23.85
2019-03-06T03:16:35.696Z,22.82
2019-03-06T03:19:05.890Z,23.32
2019-03-06T03:21:34.710Z,23.00
2019-03-06T03:24:03.217Z,22.20
2019-03-06T03:26:31.899Z,23.57
2019-03-06T03:29:00.353Z,23.65
2019-03-06T03:31:28.999Z,21.52
2019-03-06T03:33:57.585Z,21.55
2019-03-06T03:36:26.151Z,22.50
2019-03-06T03:38:54.648Z,21.80
2019-03-06T03:41:23.568Z,22.75
2019-03-06T03:43:52.049Z,24.30
2019-03-06T03:46:20.681Z,23.62
2019-03-06T03:48:49.363Z,24.57
2019-03-06T03:51:20.448Z,25.08
2019-03-06T03:53:49.326Z,26.30
2019-03-06T03:56:19.429Z,26.23
2019-03-06T03:58:48.064Z,23.65
2019-03-06T04:01:16.548Z,25.00
2019-03-06T04:03:45.104Z,27.22
2019-03-06T04:06:13.597Z,27.37
2019-03-06T04:08:42.089Z,28.17
2019-03-06T04:11:10.575Z,29.00
2019-03-06T04:13:39.069Z,29.80
2019-03-06T04:16:07.560Z,29.95
2019-03-06T04:18:36.153Z,29.10
2019-03-06T04:21:04.924Z,29.32
2019-03-06T04:23:33.702Z,30.10
2019-03-06T04:26:02.239Z,29.87
2019-03-06T04:28:30.721Z,30.35
2019-03-06T04:30:59.202Z,31.12
2019-03-06T04:33:28.074Z,31.93
2019-03-06T04:35:56.562Z,32.48
2019-03-06T04:38:25.175Z,32.35
2019-03-06T04:40:54.123Z,47.50
2019-03-06T04:43:22.878Z,45.78
2019-03-06T04:45:51.438Z,46.95
2019-03-06T04:48:19.936Z,52.50
2019-03-06T04:50:48.580Z,59.50
2019-03-06T04:53:17.078Z,63.83
2019-03-06T04:55:51.138Z,60.98
2019-03-06T04:58:26.278Z,67.00
2019-03-06T05:00:55.022Z,70.40
2019-03-06T05:03:23.546Z,68.87
2019-03-06T05:05:53.999Z,71.72
2019-03-06T05:08:24.668Z,72.27
2019-03-06T05:10:57.062Z,69.82
2019-03-06T05:13:27.225Z,75.85
2019-03-06T05:18:49.247Z,70.92
2019-03-06T05:21:27.316Z,72.00
2019-03-06T05:23:55.635Z,73.67
2019-03-06T05:26:25.756Z,71.72
2019-03-06T05:28:54.474Z,71.25
2019-03-06T05:31:38.074Z,71.55
2019-03-06T05:34:06.884Z,72.35
2019-03-06T05:37:06.210Z,72.55
2019-03-06T05:39:36.754Z,74.62
2019-03-06T05:42:05.281Z,75.47
2019-03-06T05:44:33.893Z,71.12
2019-03-06T05:47:05.024Z,71.92
2019-03-06T05:49:34.018Z,73.70
2019-03-06T05:52:08.276Z,76.05
2019-03-06T05:54:39.584Z,74.67
2019-03-06T05:57:09.843Z,72.37
2019-03-06T05:59:38.331Z,74.00
2019-03-06T06:02:06.999Z,73.40
2019-03-06T06:04:35.599Z,73.05
2019-03-06T06:07:05.099Z,74.03
2019-03-06T06:09:39.437Z,72.47
2019-03-06T06:12:07.991Z,72.50
2019-03-06T06:14:36.490Z,70.92
2019-03-06T06:17:05.016Z,74.40
2019-03-06T06:19:33.799Z,73.35
2019-03-06T06:22:03.921Z,73.47
2019-03-06T06:24:35.206Z,73.40
2019-03-06T06:27:03.691Z,74.27
2019-03-06T06:29:32.337Z,77.85
2019-03-06T06:32:01.190Z,79.17
2019-03-06T06:34:29.846Z,76.75
2019-03-06T06:36:58.435Z,78.97
2019-03-06T06:39:27.213Z,79.03
2019-03-06T06:41:55.745Z,78.15
2019-03-06T06:44:24.607Z,78.42
2019-03-06T06:46:53.110Z,77.70
2019-03-06T06:49:26.043Z,73.62
2019-03-06T06:52:04.386Z,76.72
2019-03-06T06:54:36.736Z,70.47
2019-03-06T06:57:23.767Z,71.12
2019-03-06T07:00:28.187Z,68.35
2019-03-06T07:03:42.159Z,65.08
2019-03-06T07:06:20.955Z,64.70
2019-03-06T07:08:51.206Z,67.85
2019-03-06T07:11:31.692Z,68.30
2019-03-06T07:14:04.650Z,67.70
2019-03-06T07:16:34.785Z,68.25
2019-03-06T07:19:10.785Z,66.28
2019-03-06T07:21:52.784Z,64.05
2019-03-06T07:24:28.848Z,63.87
2019-03-06T07:27:19.498Z,67.62
2019-03-06T07:29:49.640Z,66.55
2019-03-06T07:32:28.708Z,62.45
2019-03-06T07:35:45.537Z,65.78
2019-03-06T07:38:14.097Z,61.08
2019-03-06T07:40:57.527Z,67.27
2019-03-06T07:43:27.728Z,65.35
2019-03-06T07:45:57.921Z,66.12
2019-03-06T07:48:28.358Z,61.83
2019-03-06T07:51:01.188Z,60.12
2019-03-06T07:53:49.227Z,63.25
2019-03-06T07:56:19.350Z,65.70
2019-03-06T07:58:52.034Z,65.67
2019-03-06T08:01:21.268Z,62.15
2019-03-06T08:03:52.933Z,64.65
2019-03-06T08:06:21.527Z,61.23
2019-03-06T08:08:50.022Z,62.00
2019-03-06T08:11:20.275Z,63.30
2019-03-06T08:13:50.782Z,60.33
2019-03-06T08:16:21.233Z,63.52
2019-03-06T08:19:07.717Z,61.05
2019-03-06T08:21:40.706Z,60.95
2019-03-06T08:24:10.812Z,62.80
2019-03-06T08:26:39.502Z,61.65
2019-03-06T08:29:08.143Z,57.80
2019-03-06T08:31:38.308Z,60.48
2019-03-06T08:34:06.908Z,56.88
2019-03-06T08:36:35.422Z,62.23
2019-03-06T08:39:05.125Z,62.20
2019-03-06T08:41:33.606Z,64.62
2019-03-06T08:44:02.099Z,66.40
2019-03-06T08:46:48.296Z,65.30
2019-03-06T08:49:34.301Z,62.67
2019-03-06T08:52:04.448Z,64.90
2019-03-06T08:54:34.579Z,63.92
2019-03-06T08:57:19.747Z,62.58
2019-03-06T09:00:06.154Z,62.90
2019-03-06T09:02:48.183Z,63.35
2019-03-06T09:05:18.392Z,64.77
2019-03-06T09:07:51.471Z,68.17
2019-03-06T09:10:37.654Z,66.77
2019-03-06T09:13:19.669Z,66.20
2019-03-06T09:16:05.883Z,61.90
2019-03-06T09:18:41.789Z,63.30
2019-03-06T09:21:11.923Z,65.37
2019-03-06T09:23:44.759Z,63.15
2019-03-06T09:26:20.775Z,60.88
2019-03-06T09:29:02.643Z,60.67
2019-03-06T09:31:32.757Z,61.77
2019-03-06T09:34:08.776Z,59.77
2019-03-06T09:36:54.868Z,62.08
2019-03-06T09:39:27.839Z,59.08
2019-03-06T09:42:13.999Z,59.35
2019-03-06T09:44:49.865Z,59.88
2019-03-06T09:47:22.658Z,56.65
2019-03-06T09:49:52.811Z,57.43
2019-03-06T09:52:28.577Z,61.30
2019-03-06T09:55:04.412Z,56.92
2019-03-06T09:57:34.514Z,55.25
2019-03-06T10:00:20.635Z,58.55
2019-03-06T10:02:53.446Z,53.15
2019-03-06T10:05:23.583Z,55.03
2019-03-06T10:08:09.855Z,57.27
2019-03-06T10:10:50.507Z,57.95
2019-03-06T10:13:23.391Z,56.28
2019-03-06T10:15:53.539Z,57.15
2019-03-06T10:18:26.943Z,57.55
2019-03-06T10:20:55.480Z,57.20
2019-03-06T10:23:23.960Z,56.92
2019-03-06T10:25:52.474Z,54.58
2019-03-06T10:28:27.495Z,59.48
2019-03-06T10:30:51.092Z,56.23
2019-03-06T10:33:19.598Z,54.03
2019-03-06T10:35:48.099Z,54.77
2019-03-06T10:38:17.170Z,56.15
2019-03-06T10:40:45.772Z,57.40
2019-03-06T10:43:14.294Z,53.95
2019-03-06T10:45:42.768Z,55.67
2019-03-06T10:48:11.277Z,53.38
2019-03-06T10:50:39.744Z,55.25
2019-03-06T10:53:08.354Z,55.10
2019-03-06T10:55:37.041Z,50.98
2019-03-06T10:58:05.592Z,52.58
2019-03-06T11:00:38.248Z,51.28
2019-03-06T11:03:06.799Z,51.03
2019-03-06T11:05:36.667Z,52.30
2019-03-06T11:08:05.287Z,49.23
2019-03-06T11:10:34.395Z,47.98
2019-03-06T11:13:04.946Z,47.20
2019-03-06T11:15:33.607Z,49.25
2019-03-06T11:18:02.105Z,45.63
2019-03-06T11:20:35.378Z,46.55
2019-03-06T11:23:08.919Z,46.45
2019-03-06T11:25:38.423Z,39.50
2019-03-06T11:28:09.059Z,40.83
2019-03-06T11:30:43.646Z,40.88
2019-03-06T11:33:12.300Z,40.52
2019-03-06T11:35:40.880Z,40.23
2019-03-06T11:38:09.586Z,38.63
2019-03-06T11:40:38.159Z,41.20
2019-03-06T11:43:08.227Z,39.80
2019-03-06T11:45:38.245Z,37.35
2019-03-06T11:48:06.813Z,34.95
2019-03-06T11:50:40.811Z,33.67
2019-03-06T11:53:05.875Z,36.28
2019-03-06T11:55:34.373Z,35.00
2019-03-06T11:58:02.988Z,35.80
2019-03-06T12:00:41.837Z,34.05
2019-03-06T12:03:10.555Z,32.95
2019-03-06T12:05:39.127Z,32.48
2019-03-06T12:08:10.045Z,31.45
2019-03-06T12:10:38.650Z,32.98
2019-03-06T12:13:12.002Z,30.68
2019-03-06T12:15:41.031Z,30.43
2019-03-06T12:18:09.531Z,30.05
2019-03-06T12:20:40.039Z,29.12
2019-03-06T12:23:08.248Z,29.63
2019-03-06T12:25:36.724Z,25.05
2019-03-06T12:28:05.273Z,27.05
2019-03-06T12:30:33.802Z,26.73
2019-03-06T12:33:02.309Z,27.73
2019-03-06T12:35:30.798Z,28.90
2019-03-06T12:37:59.372Z,28.73
2019-03-06T12:40:31.769Z,26.15
2019-03-06T12:43:00.242Z,25.85
2019-03-06T12:45:28.766Z,25.60
2019-03-06T12:48:03.423Z,24.07
2019-03-06T12:50:37.515Z,25.92
2019-03-06T12:53:06.079Z,23.87
2019-03-06T12:55:34.614Z,21.68
2019-03-06T12:58:03.099Z,19.70
2019-03-06T13:00:33.222Z,18.55
2019-03-06T13:03:01.718Z,21.57
2019-03-06T13:05:30.190Z,23.65
2019-03-06T13:07:58.703Z,24.75
2019-03-06T13:10:27.175Z,25.12
2019-03-06T13:12:55.673Z,26.20
2019-03-06T13:15:24.900Z,26.95
2019-03-06T13:17:53.837Z,25.48
2019-03-06T13:20:22.300Z,24.32
2019-03-06T13:22:51.696Z,24.55
2019-03-06T13:25:23.565Z,25.25
2019-03-06T13:27:55.366Z,25.08
2019-03-06T13:30:23.845Z,23.57
2019-03-06T13:32:53.954Z,25.25
2019-03-06T13:35:22.463Z,23.92
2019-03-06T13:37:50.946Z,24.40
2019-03-06T13:40:19.448Z,24.55
2019-03-06T13:42:52.558Z,22.77
2019-03-06T13:45:21.351Z,24.55
2019-03-06T13:47:51.031Z,23.47
2019-03-06T13:50:19.724Z,22.50
2019-03-06T13:52:51.354Z,23.67
2019-03-06T13:55:19.953Z,23.38
2019-03-06T13:57:48.514Z,23.70
2019-03-06T14:00:18.824Z,22.17
2019-03-06T14:02:48.337Z,20.85
2019-03-06T14:05:17.003Z,19.37
2019-03-06T14:07:55.652Z,20.50
2019-03-06T14:10:23.823Z,20.00
2019-03-06T14:12:52.562Z,18.30
2019-03-06T14:15:24.221Z,17.85
2019-03-06T14:17:52.760Z,18.20
2019-03-06T14:20:22.619Z,20.15
2019-03-06T14:22:51.321Z,21.02
2019-03-06T14:25:20.218Z,18.67
2019-03-06T14:27:48.951Z,19.40
2019-03-06T14:30:22.808Z,19.32
2019-03-06T14:32:51.553Z,19.67
2019-03-06T14:35:20.105Z,20.55
2019-03-06T14:37:48.567Z,18.45
2019-03-06T14:40:20.336Z,19.90
2019-03-06T14:42:48.823Z,19.82
2019-03-06T14:45:17.310Z,20.05
2019-03-06T14:47:45.799Z,19.90
2019-03-06T14:50:14.276Z,19.30
2019-03-06T14:52:42.768Z,18.82
2019-03-06T14:55:14.799Z,17.23
2019-03-06T14:57:43.492Z,19.25
2019-03-06T15:00:18.140Z,19.32
2019-03-06T15:02:46.898Z,20.48
2019-03-06T15:05:16.006Z,20.82
2019-03-06T15:07:44.531Z,19.67
2019-03-06T15:10:16.961Z,19.37
2019-03-06T15:12:45.488Z,18.85
2019-03-06T15:15:19.154Z,19.70
2019-03-06T15:17:47.809Z,18.52
2019-03-06T15:20:21.495Z,18.05
2019-03-06T15:22:56.825Z,18.87
2019-03-06T15:25:27.961Z,19.87
2019-03-06T15:27:59.022Z,19.70
2019-03-06T15:30:27.553Z,18.98
2019-03-06T15:32:56.030Z,20.72
2019-03-06T15:35:24.588Z,20.90
2019-03-06T15:37:53.116Z,20.88
2019-03-06T15:40:28.373Z,19.07
2019-03-06T15:42:59.050Z,18.82
2019-03-06T15:45:33.032Z,20.32
2019-03-06T15:48:01.615Z,19.80
2019-03-06T15:50:30.229Z,18.35
2019-03-06T15:52:58.724Z,22.00
2019-03-06T15:55:28.164Z,18.50
2019-03-06T15:57:56.686Z,18.70
2019-03-06T16:00:35.449Z,18.92
2019-03-06T16:03:05.594Z,18.05
2019-03-06T16:05:34.323Z,18.12
2019-03-06T16:08:02.817Z,16.82
2019-03-06T16:10:31.314Z,17.02
2019-03-06T16:12:59.821Z,16.82
2019-03-06T16:15:29.028Z,17.27
2019-03-06T16:17:59.404Z,16.75
2019-03-06T16:20:28.030Z,18.02
2019-03-06T16:22:56.546Z,17.98
2019-03-06T16:25:25.098Z,17.02
2019-03-06T16:27:53.897Z,16.05
2019-03-06T16:30:23.672Z,17.20
2019-03-06T16:32:52.245Z,17.62
2019-03-06T16:35:20.751Z,19.02
2019-03-06T16:37:49.267Z,18.12
2019-03-06T16:40:20.047Z,18.27
2019-03-06T16:42:48.909Z,17.87
2019-03-06T16:45:24.187Z,19.07
2019-03-06T16:47:55.872Z,17.35
2019-03-06T16:50:24.586Z,18.65
2019-03-06T16:53:10.646Z,18.82
2019-03-06T16:55:57.334Z,16.67
2019-03-06T16:58:25.902Z,18.57
2019-03-06T17:00:54.548Z,22.17
2019-03-06T17:03:23.319Z,23.52
2019-03-06T17:05:52.030Z,24.75
2019-03-06T17:08:20.563Z,29.02
2019-03-06T17:10:49.267Z,28.02
2019-03-06T17:13:17.820Z,28.67
2019-03-06T17:15:46.339Z,30.55
2019-03-06T17:18:15.113Z,29.80
2019-03-06T17:20:43.700Z,28.23
2019-03-06T17:23:12.172Z,28.80
2019-03-06T17:25:40.664Z,29.05
2019-03-06T17:28:09.141Z,28.15
2019-03-06T17:30:37.964Z,26.60
2019-03-06T17:33:09.624Z,28.83
2019-03-06T17:35:38.434Z,26.35
2019-03-06T17:38:12.018Z,25.68
2019-03-06T17:40:40.579Z,26.30
2019-03-06T17:43:09.142Z,28.20
2019-03-06T17:45:37.625Z,25.15
2019-03-06T17:48:06.653Z,26.70
2019-03-06T17:50:35.202Z,25.02
2019-03-06T17:53:03.764Z,26.40
2019-03-06T17:55:32.254Z,26.42
2019-03-06T17:58:00.840Z,26.87
2019-03-06T18:00:47.252Z,27.85
2019-03-06T18:03:20.074Z,28.12
2019-03-06T18:05:48.627Z,28.02
2019-03-06T18:08:17.157Z,27.98
2019-03-06T18:10:45.770Z,27.67
2019-03-06T18:13:14.405Z,28.62
2019-03-06T18:15:44.403Z,26.93
2019-03-06T18:18:13.069Z,28.65
2019-03-06T18:20:41.602Z,29.37
2019-03-06T18:23:10.156Z,31.48
2019-03-06T18:25:39.097Z,30.02
2019-03-06T18:28:07.862Z,30.02
2019-03-06T18:30:36.344Z,30.43
2019-03-06T18:33:04.830Z,30.60
2019-03-06T18:35:36.339Z,30.00
2019-03-06T18:38:04.977Z,30.65
2019-03-06T18:40:33.471Z,31.52
2019-03-06T18:43:02.165Z,29.25
2019-03-06T18:45:30.810Z,31.02
2019-03-06T18:47:59.360Z,28.98
2019-03-06T18:50:27.829Z,30.00
2019-03-06T18:52:56.651Z,31.70
2019-03-06T18:55:25.209Z,28.50
2019-03-06T18:57:53.720Z,29.85
2019-03-06T19:00:26.910Z,32.30
2019-03-06T19:02:55.417Z,31.20
2019-03-06T19:05:23.956Z,29.30
2019-03-06T19:07:52.523Z,30.32
2019-03-06T19:10:23.106Z,29.85
2019-03-06T19:12:51.925Z,27.22
2019-03-06T19:15:23.675Z,29.77
2019-03-06T19:17:52.200Z,26.87
2019-03-06T19:20:21.241Z,28.67
2019-03-06T19:22:50.304Z,26.82
2019-03-06T19:25:18.945Z,28.83
2019-03-06T19:27:47.731Z,28.25
2019-03-06T19:30:20.861Z,30.23
2019-03-06T19:32:49.335Z,31.87
2019-03-06T19:35:18.275Z,29.18
2019-03-06T19:37:46.794Z,29.98
2019-03-06T19:40:16.634Z,30.05
2019-03-06T19:42:45.321Z,31.45
2019-03-06T19:45:21.730Z,30.50
2019-03-06T19:47:50.787Z,31.30
2019-03-06T19:50:25.589Z,30.52
2019-03-06T19:52:54.745Z,31.93
2019-03-06T19:55:23.609Z,33.08
2019-03-06T19:57:58.313Z,32.98
2019-03-06T20:00:29.464Z,35.20
2019-03-06T20:02:59.903Z,38.98
2019-03-06T20:05:39.529Z,36.40
2019-03-06T20:08:10.625Z,39.88
2019-03-06T20:10:41.940Z,37.98
2019-03-06T20:13:11.060Z,38.80
2019-03-06T20:15:40.363Z,39.35
2019-03-06T20:18:08.931Z,41.23
2019-03-06T20:20:37.441Z,38.53
2019-03-06T20:23:05.919Z,36.85
2019-03-06T20:25:34.427Z,37.10
2019-03-06T20:28:03.064Z,37.95
2019-03-06T20:30:31.690Z,35.95
2019-03-06T20:33:00.260Z,37.55
2019-03-06T20:35:28.745Z,37.83
2019-03-06T20:37:57.632Z,37.80
2019-03-06T20:40:26.108Z,38.25
2019-03-06T20:42:54.710Z,40.17
2019-03-06T20:45:23.262Z,37.17
2019-03-06T20:47:51.769Z,38.50
2019-03-06T20:50:20.795Z,42.45
2019-03-06T20:52:50.379Z,41.28
2019-03-06T20:55:20.904Z,40.08
2019-03-06T20:57:49.489Z,39.05
2019-03-06T21:00:26.004Z,40.00
2019-03-06T21:02:54.699Z,39.92
2019-03-06T21:05:23.372Z,44.05
2019-03-06T21:07:52.052Z,42.85
2019-03-06T21:10:21.100Z,41.92
2019-03-06T21:12:49.754Z,44.18
2019-03-06T21:15:19.455Z,42.85
2019-03-06T21:17:47.923Z,40.28
2019-03-06T21:20:23.138Z,45.00
2019-03-06T21:22:51.619Z,42.23
2019-03-06T21:25:20.966Z,42.10
2019-03-06T21:27:49.749Z,43.45
2019-03-06T21:30:26.699Z,45.35
2019-03-06T21:32:55.246Z,42.88
2019-03-06T21:35:23.747Z,44.83
2019-03-06T21:37:52.372Z,42.53
2019-03-06T21:40:20.912Z,43.13
2019-03-06T21:42:49.800Z,39.40
2019-03-06T21:45:18.298Z,42.30
2019-03-06T21:47:46.784Z,39.45
2019-03-06T21:50:16.297Z,39.92
2019-03-06T21:52:44.893Z,39.70
2019-03-06T21:55:16.563Z,41.45
2019-03-06T21:57:45.296Z,41.95
2019-03-06T22:00:21.916Z,39.92
2019-03-06T22:02:50.565Z,39.40
2019-03-06T22:05:19.067Z,37.90
2019-03-06T22:07:47.536Z,38.73
2019-03-06T22:10:16.585Z,39.33
2019-03-06T22:12:45.445Z,38.60
2019-03-06T22:15:19.257Z,38.85
2019-03-06T22:17:47.722Z,38.28
2019-03-06T22:20:16.866Z,37.93
2019-03-06T22:22:45.505Z,39.48
2019-03-06T22:25:16.352Z,39.50
2019-03-06T22:27:44.843Z,38.38
2019-03-06T22:30:18.409Z,37.03
2019-03-06T22:32:47.003Z,36.23
2019-03-06T22:35:15.482Z,37.03
2019-03-06T22:37:43.977Z,35.92
2019-03-06T22:40:14.970Z,36.68
2019-03-06T22:42:43.511Z,37.50
2019-03-06T22:45:14.225Z,37.85
2019-03-06T22:47:42.807Z,37.25
2019-03-06T22:50:15.251Z,37.20
2019-03-06T22:52:43.738Z,35.08
2019-03-06T22:55:16.547Z,33.55
2019-03-06T22:57:45.003Z,35.35
2019-03-06T23:00:32.689Z,34.95
2019-03-06T23:03:01.156Z,36.20
2019-03-06T23:05:31.474Z,36.08
2019-03-06T23:08:00.002Z,35.95
2019-03-06T23:10:28.713Z,35.40
2019-03-06T23:12:58.614Z,36.85
2019-03-06T23:15:27.333Z,37.93
2019-03-06T23:17:57.468Z,35.23
2019-03-06T23:20:25.994Z,38.45
2019-03-06T23:22:54.502Z,35.85
2019-03-06T23:25:22.981Z,35.73
2019-03-06T23:27:51.473Z,37.50
2019-03-06T23:30:19.943Z,35.90
2019-03-06T23:32:48.757Z,34.53
2019-03-06T23:35:17.237Z,37.85
2019-03-06T23:37:45.777Z,35.50
2019-03-06T23:40:14.259Z,36.20
2019-03-06T23:42:42.755Z,35.43
2019-03-06T23:45:12.379Z,34.35
2019-03-06T23:47:41.083Z,37.10
2019-03-06T23:50:10.918Z,35.90
2019-03-06T23:52:56.988Z,37.20
2019-03-06T23:55:26.326Z,36.25
2019-03-06T23:57:55.103Z,35.50
